Woodbury, Tennessee
Current Conditions -  °F | °C
As of 9:53 PM on Tuesday 27 Jan 2015 (Local Time) from KBNA Reporting Station
Overcast Overcast  
Wind Chill: 28°   Ceiling: 3200
Heat Index: 35°   Visibility: 10mi
Dew Point: 30°   Wind: 9mph
Humidity: 82%   Direction: 20°NNE
Pressure: 30.23"   Gusts: NA
Location:  35.83°N, 86.07°W
Report Text: KBNA 280353Z 02008KT 10SM OVC032 02/M01 A3023 RMK AO2 SLP241 T00171011
Loading
Personal Weather Stations






























Interactive Weather Map New forecast layout! Learn more

10-Day Weather Forecast

Advertisements
Track Severe Weather on mobile